createdAt,value
2023-05-15T00:00:59.735Z,9.67
2023-05-15T00:03:29.455Z,8.00
2023-05-15T00:05:57.860Z,5.53
2023-05-15T00:08:26.025Z,6.00
2023-05-15T00:11:01.592Z,6.07
2023-05-15T00:13:30.313Z,5.53
2023-05-15T00:15:59.865Z,5.90
2023-05-15T00:18:28.072Z,5.97
2023-05-15T00:20:56.251Z,5.97
2023-05-15T00:23:24.380Z,5.07
2023-05-15T00:25:52.632Z,5.37
2023-05-15T00:28:20.715Z,5.83
2023-05-15T00:30:48.951Z,5.80
2023-05-15T00:33:18.470Z,5.80
2023-05-15T00:35:50.082Z,5.93
2023-05-15T00:38:18.144Z,5.17
2023-05-15T00:40:47.654Z,5.50
2023-05-15T00:43:17.179Z,5.60
2023-05-15T00:45:46.185Z,6.17
2023-05-15T00:48:14.978Z,5.60
2023-05-15T00:50:45.225Z,5.97
2023-05-15T00:53:13.431Z,5.40
2023-05-15T00:55:43.309Z,5.43
2023-05-15T00:58:12.169Z,5.63
2023-05-15T01:00:40.724Z,5.60
2023-05-15T01:03:09.547Z,6.37
2023-05-15T01:05:37.843Z,5.23
2023-05-15T01:08:14.869Z,5.87
2023-05-15T01:10:44.642Z,5.27
2023-05-15T01:13:15.108Z,5.60
2023-05-15T01:15:43.451Z,5.63
2023-05-15T01:18:11.658Z,5.50
2023-05-15T01:21:03.041Z,6.10
2023-05-15T01:23:46.896Z,6.07
2023-05-15T01:26:47.650Z,6.13
2023-05-15T01:29:26.124Z,6.50
2023-05-15T01:31:59.721Z,5.80
2023-05-15T01:34:35.433Z,6.50
2023-05-15T01:37:05.349Z,6.20
2023-05-15T01:39:36.565Z,6.17
2023-05-15T01:42:09.336Z,6.20
2023-05-15T01:44:44.428Z,6.00
2023-05-15T01:47:16.121Z,6.10
2023-05-15T01:49:46.111Z,5.73
2023-05-15T01:52:30.528Z,5.90
2023-05-15T01:54:59.516Z,5.80
2023-05-15T01:57:28.755Z,5.93
2023-05-15T02:00:00.859Z,5.77
2023-05-15T02:02:31.841Z,5.70
2023-05-15T02:05:00.796Z,5.90
2023-05-15T02:07:29.056Z,5.83
2023-05-15T02:10:00.526Z,5.83
2023-05-15T02:12:29.048Z,5.90
2023-05-15T02:15:00.100Z,6.17
2023-05-15T02:17:31.157Z,5.73
2023-05-15T02:20:01.212Z,5.80
2023-05-15T02:22:30.727Z,5.20
2023-05-15T02:25:02.146Z,5.40
2023-05-15T02:27:34.647Z,5.07
2023-05-15T02:30:31.084Z,5.70
2023-05-15T02:33:06.701Z,5.00
2023-05-15T02:35:43.218Z,5.10
2023-05-15T02:38:17.284Z,5.07
2023-05-15T02:40:49.367Z,5.17
2023-05-15T02:43:19.978Z,5.70
2023-05-15T02:45:50.739Z,5.57
2023-05-15T02:48:21.898Z,5.40
2023-05-15T02:50:57.602Z,5.70
2023-05-15T02:53:44.664Z,5.70
2023-05-15T02:56:12.959Z,6.03
2023-05-15T02:58:41.683Z,6.30
2023-05-15T03:01:12.922Z,6.90
2023-05-15T03:03:41.524Z,6.93
2023-05-15T03:06:09.609Z,7.03
2023-05-15T03:08:37.699Z,6.90
2023-05-15T03:11:09.039Z,7.20
2023-05-15T03:13:39.654Z,7.63
2023-05-15T03:16:08.072Z,7.20
2023-05-15T03:18:41.418Z,6.90
2023-05-15T03:21:12.511Z,6.93
2023-05-15T03:23:41.730Z,6.80
2023-05-15T03:26:15.810Z,7.03
2023-05-15T03:28:44.245Z,7.20
2023-05-15T03:31:14.454Z,7.17
2023-05-15T03:33:45.767Z,7.20
2023-05-15T03:36:15.025Z,7.17
2023-05-15T03:38:44.334Z,6.53
2023-05-15T03:41:12.597Z,6.87
2023-05-15T03:43:40.728Z,7.27
2023-05-15T03:46:09.143Z,7.00
2023-05-15T03:48:37.409Z,6.90
2023-05-15T03:51:06.978Z,7.63
2023-05-15T03:53:36.506Z,6.43
2023-05-15T03:56:30.788Z,6.00
2023-05-15T03:58:58.835Z,5.80
2023-05-15T04:01:28.434Z,6.20
2023-05-15T04:03:57.597Z,6.27
2023-05-15T04:06:27.068Z,6.40
2023-05-15T04:08:55.150Z,6.73
2023-05-15T04:11:26.976Z,7.37
2023-05-15T04:13:55.132Z,7.67
2023-05-15T04:16:23.268Z,8.00
2023-05-15T04:18:51.377Z,7.80
2023-05-15T04:21:19.594Z,8.37
2023-05-15T04:23:50.415Z,7.67
2023-05-15T04:26:18.609Z,8.40
2023-05-15T04:29:00.065Z,8.63
2023-05-15T04:31:36.964Z,8.87
2023-05-15T04:34:05.337Z,7.50
2023-05-15T04:36:33.659Z,8.63
2023-05-15T04:39:03.397Z,9.13
2023-05-15T04:41:33.317Z,9.53
2023-05-15T04:44:01.510Z,9.53
2023-05-15T04:46:30.372Z,9.70
2023-05-15T04:48:59.794Z,10.37
2023-05-15T04:51:31.587Z,9.67
2023-05-15T04:53:59.674Z,9.60
2023-05-15T04:56:31.646Z,9.70
2023-05-15T04:58:59.796Z,9.87
2023-05-15T05:01:27.965Z,10.97
2023-05-15T05:03:59.771Z,9.93
2023-05-15T05:06:30.425Z,10.63
2023-05-15T05:08:59.171Z,9.83
2023-05-15T05:11:29.175Z,10.73
2023-05-15T05:13:57.386Z,10.60
2023-05-15T05:16:25.545Z,10.83
2023-05-15T05:19:02.982Z,10.73
2023-05-15T05:21:35.062Z,10.47
2023-05-15T05:24:03.272Z,9.87
2023-05-15T05:26:33.010Z,9.63
2023-05-15T05:29:28.011Z,10.67
2023-05-15T05:32:00.794Z,8.57
2023-05-15T05:34:31.899Z,7.93
2023-05-15T05:43:54.570Z,7.60
2023-05-15T05:46:41.060Z,7.40
2023-05-15T05:49:09.148Z,8.03
2023-05-15T05:51:38.343Z,8.20
2023-05-15T05:54:06.679Z,7.93
2023-05-15T05:56:38.047Z,9.07
2023-05-15T05:59:07.744Z,9.27
2023-05-15T06:01:38.880Z,8.20
2023-05-15T06:04:11.134Z,8.07
2023-05-15T06:06:46.269Z,7.37
2023-05-15T06:09:23.514Z,7.80
2023-05-15T06:12:11.265Z,7.50
2023-05-15T06:14:59.466Z,7.73
2023-05-15T06:17:27.920Z,8.27
2023-05-15T06:19:56.116Z,8.80
2023-05-15T06:22:25.001Z,8.50
2023-05-15T06:24:54.209Z,7.60
2023-05-15T06:27:22.343Z,8.00
2023-05-15T06:29:51.887Z,7.30
2023-05-15T06:32:19.964Z,7.80
2023-05-15T06:34:48.395Z,7.77
2023-05-15T06:37:16.560Z,7.13
2023-05-15T06:39:44.638Z,7.77
2023-05-15T06:42:12.801Z,7.90
2023-05-15T06:44:40.919Z,7.40
2023-05-15T06:47:14.451Z,7.43
2023-05-15T06:49:42.652Z,16.20
2023-05-15T06:52:10.934Z,7.30
2023-05-15T06:54:41.410Z,7.50
2023-05-15T07:00:19.675Z,6.37
2023-05-15T07:02:52.524Z,6.43
2023-05-15T07:05:23.717Z,6.87
2023-05-15T07:07:52.224Z,7.20
2023-05-15T07:12:46.121Z,7.00
2023-05-15T07:15:43.588Z,6.70
2023-05-15T07:18:13.499Z,6.57
2023-05-15T07:20:41.910Z,7.33
2023-05-15T07:23:18.910Z,6.50
2023-05-15T07:25:48.691Z,6.57
2023-05-15T07:28:21.104Z,6.30
2023-05-15T07:31:19.890Z,6.77
2023-05-15T07:33:50.908Z,6.83
2023-05-15T07:39:29.180Z,6.70
2023-05-15T07:41:59.458Z,7.00
2023-05-15T07:44:29.053Z,7.00
2023-05-15T07:47:00.533Z,6.77
2023-05-15T07:49:36.505Z,7.17
2023-05-15T07:52:08.237Z,7.37
2023-05-15T07:54:36.367Z,6.70
2023-05-15T07:57:04.721Z,6.77
2023-05-15T07:59:32.942Z,6.60
2023-05-15T08:02:01.755Z,6.40
2023-05-15T08:04:31.301Z,6.80
2023-05-15T08:07:00.503Z,6.10
2023-05-15T08:09:28.585Z,6.40
2023-05-15T08:11:57.714Z,6.57
2023-05-15T08:14:26.256Z,8.33
2023-05-15T08:16:55.636Z,5.97
2023-05-15T08:19:24.014Z,5.63
2023-05-15T08:21:53.953Z,5.90
2023-05-15T08:24:22.083Z,5.93
2023-05-15T08:26:54.747Z,6.00
2023-05-15T08:29:22.958Z,5.97
2023-05-15T08:31:53.368Z,5.60
2023-05-15T08:34:21.427Z,5.90
2023-05-15T08:36:50.914Z,5.87
2023-05-15T08:39:21.133Z,6.80
2023-05-15T08:41:54.473Z,5.80
2023-05-15T08:44:23.583Z,5.40
2023-05-15T08:46:56.778Z,6.13
2023-05-15T08:49:51.574Z,5.50
2023-05-15T08:52:19.828Z,5.37
2023-05-15T08:54:50.773Z,5.20
2023-05-15T08:57:50.443Z,5.47
2023-05-15T09:00:21.813Z,6.07
2023-05-15T09:03:00.450Z,5.53
2023-05-15T09:05:38.195Z,5.93
2023-05-15T09:08:10.238Z,5.57
2023-05-15T09:10:40.638Z,4.70
2023-05-15T09:13:10.121Z,5.17
2023-05-15T09:15:40.267Z,4.87
2023-05-15T09:18:09.899Z,4.50
2023-05-15T09:20:41.935Z,4.10
2023-05-15T09:23:27.848Z,3.80
2023-05-15T09:25:59.586Z,4.10
2023-05-15T09:28:29.697Z,3.80
2023-05-15T09:31:03.435Z,3.80
2023-05-15T09:33:33.330Z,3.93
2023-05-15T09:36:01.873Z,3.67
2023-05-15T09:38:42.202Z,4.07
2023-05-15T09:41:13.503Z,4.37
2023-05-15T09:43:42.399Z,3.53
2023-05-15T09:46:13.032Z,4.27
2023-05-15T09:48:41.386Z,4.07
2023-05-15T09:51:19.177Z,3.70
2023-05-15T09:53:50.928Z,3.70
2023-05-15T09:56:22.017Z,3.40
2023-05-15T09:58:57.508Z,3.73
2023-05-15T10:01:46.568Z,3.63
2023-05-15T10:04:24.083Z,3.63
2023-05-15T10:07:18.445Z,3.40
2023-05-15T10:09:51.488Z,3.23
2023-05-15T10:12:29.521Z,3.47
2023-05-15T10:15:09.830Z,3.23
2023-05-15T10:20:38.643Z,3.60
2023-05-15T10:23:12.777Z,3.33
2023-05-15T10:25:54.302Z,2.87
2023-05-15T10:28:28.179Z,3.33
2023-05-15T10:31:01.119Z,3.20
2023-05-15T10:33:31.210Z,3.47
2023-05-15T10:36:10.288Z,4.10
2023-05-15T10:38:39.814Z,3.20
2023-05-15T10:41:17.102Z,3.10
2023-05-15T10:44:11.649Z,3.47
2023-05-15T10:46:40.677Z,3.47
2023-05-15T10:49:28.080Z,3.20
2023-05-15T10:55:18.099Z,3.30
2023-05-15T10:57:55.028Z,3.20
2023-05-15T11:00:42.994Z,2.90
2023-05-15T11:03:18.400Z,2.80
2023-05-15T11:06:08.850Z,3.03
2023-05-15T11:09:00.774Z,3.60
2023-05-15T11:15:22.155Z,2.80
2023-05-15T11:18:22.369Z,3.10
2023-05-15T11:23:44.862Z,2.97
2023-05-15T11:26:16.187Z,3.20
2023-05-15T11:28:47.200Z,3.00
2023-05-15T11:31:18.077Z,3.40
2023-05-15T11:33:54.922Z,3.20
2023-05-15T11:36:45.084Z,3.10
2023-05-15T11:39:36.241Z,3.13
2023-05-15T11:42:18.468Z,3.07
2023-05-15T11:44:47.969Z,2.83
2023-05-15T11:47:48.337Z,2.63
2023-05-15T11:50:54.588Z,2.90
2023-05-15T11:53:26.678Z,3.10
2023-05-15T11:55:55.386Z,2.90
2023-05-15T11:58:28.151Z,2.90
2023-05-15T12:01:14.641Z,2.80
2023-05-15T12:03:43.160Z,3.30
2023-05-15T12:06:14.186Z,3.30
2023-05-15T12:09:03.371Z,3.20
2023-05-15T12:11:33.464Z,3.30
2023-05-15T12:14:06.124Z,3.20
2023-05-15T12:16:38.272Z,3.10
2023-05-15T12:19:15.098Z,3.10
2023-05-15T12:21:57.626Z,3.27
2023-05-15T12:24:28.886Z,3.13
2023-05-15T12:26:59.614Z,2.87
2023-05-15T12:29:29.961Z,3.13
2023-05-15T12:31:59.728Z,2.80
2023-05-15T12:34:36.496Z,3.60
2023-05-15T12:37:25.802Z,3.27
2023-05-15T12:39:55.453Z,3.67
2023-05-15T12:42:23.990Z,3.40
2023-05-15T12:44:56.086Z,4.20
2023-05-15T12:47:25.725Z,3.90
2023-05-15T12:49:59.369Z,4.40
2023-05-15T12:52:32.764Z,4.50
2023-05-15T12:55:02.845Z,4.67
2023-05-15T12:57:32.762Z,4.97
2023-05-15T13:00:01.261Z,4.93
2023-05-15T13:02:31.067Z,4.63
2023-05-15T13:05:03.881Z,5.23
2023-05-15T13:07:34.768Z,4.90
2023-05-15T13:10:12.663Z,4.90
2023-05-15T13:16:10.285Z,6.13
2023-05-15T13:18:38.490Z,7.27
2023-05-15T13:21:07.356Z,6.13
2023-05-15T13:23:37.619Z,5.57
2023-05-15T13:26:15.802Z,5.13
2023-05-15T13:28:43.907Z,5.17
2023-05-15T13:31:12.085Z,5.60
2023-05-15T13:33:41.902Z,5.10
2023-05-15T13:36:17.971Z,5.20
2023-05-15T13:38:49.118Z,5.37
2023-05-15T13:41:17.194Z,5.47
2023-05-15T13:43:49.932Z,6.03
2023-05-15T13:46:19.244Z,5.43
2023-05-15T13:48:52.935Z,5.60
2023-05-15T13:51:20.996Z,5.20
2023-05-15T13:53:52.119Z,4.93
2023-05-15T13:56:26.010Z,5.40
2023-05-15T13:59:19.304Z,5.20
2023-05-15T14:02:18.309Z,4.50
2023-05-15T14:04:51.296Z,4.77
2023-05-15T14:07:19.848Z,4.63
2023-05-15T14:09:51.535Z,5.10
2023-05-15T14:12:38.882Z,5.37
2023-05-15T14:15:08.510Z,4.40
2023-05-15T14:17:37.790Z,4.70
2023-05-15T14:20:06.867Z,4.70
2023-05-15T14:22:35.210Z,4.60
2023-05-15T14:25:06.048Z,4.43
2023-05-15T14:27:35.638Z,4.37
2023-05-15T14:30:07.962Z,4.37
2023-05-15T14:32:43.933Z,3.93
2023-05-15T14:35:20.535Z,3.70
2023-05-15T14:37:52.911Z,3.53
2023-05-15T14:40:23.459Z,3.90
2023-05-15T14:42:51.715Z,4.13
2023-05-15T14:45:20.373Z,4.60
2023-05-15T14:47:49.015Z,4.23
2023-05-15T14:50:52.068Z,4.53
2023-05-15T14:57:14.133Z,5.70
2023-05-15T14:59:43.819Z,4.77
2023-05-15T15:02:11.961Z,5.80
2023-05-15T15:04:41.766Z,5.23
2023-05-15T15:07:12.593Z,5.47
2023-05-15T15:09:40.778Z,5.20
2023-05-15T15:12:49.000Z,5.27
2023-05-15T15:15:17.117Z,5.00
2023-05-15T15:17:45.996Z,5.50
2023-05-15T15:20:16.068Z,5.17
2023-05-15T15:22:44.290Z,4.90
2023-05-15T15:25:12.793Z,5.63
2023-05-15T15:27:48.228Z,5.83
2023-05-15T15:30:22.212Z,6.27
2023-05-15T15:32:50.984Z,5.57
2023-05-15T15:35:31.352Z,6.50
2023-05-15T15:38:01.550Z,6.20
2023-05-15T15:40:30.816Z,6.30
2023-05-15T15:43:01.577Z,5.90
2023-05-15T15:45:30.302Z,6.90
2023-05-15T15:47:58.883Z,6.87
2023-05-15T15:50:27.458Z,5.57
2023-05-15T15:52:56.238Z,5.50
2023-05-15T15:55:25.508Z,5.30
2023-05-15T15:57:53.885Z,3.77
2023-05-15T16:00:23.462Z,4.03
2023-05-15T16:02:51.805Z,3.90
2023-05-15T16:05:20.081Z,4.10
2023-05-15T16:07:48.931Z,4.57
2023-05-15T16:10:22.960Z,5.40
2023-05-15T16:12:56.349Z,5.70
2023-05-15T16:15:26.049Z,6.43
2023-05-15T16:17:55.334Z,6.80
2023-05-15T16:20:39.151Z,6.13
2023-05-15T16:23:09.277Z,6.83
2023-05-15T16:25:40.694Z,6.93
2023-05-15T16:28:10.051Z,7.70
2023-05-15T16:30:48.881Z,6.83
2023-05-15T16:33:18.033Z,6.97
2023-05-15T16:35:48.496Z,7.70
2023-05-15T16:38:18.036Z,7.60
2023-05-15T16:41:21.325Z,13.40
2023-05-15T16:43:51.113Z,8.83
2023-05-15T16:46:21.197Z,9.60
2023-05-15T16:49:09.873Z,8.40
2023-05-15T16:51:38.679Z,13.00
2023-05-15T16:54:07.487Z,11.10
2023-05-15T16:56:36.144Z,8.90
2023-05-15T16:59:09.843Z,23.07
2023-05-15T17:01:39.856Z,11.67
2023-05-15T17:04:08.222Z,11.20
2023-05-15T17:06:36.309Z,9.97
2023-05-15T17:09:07.356Z,10.13
2023-05-15T17:11:39.195Z,9.90
2023-05-15T17:14:10.296Z,8.63
2023-05-15T17:16:46.759Z,8.03
2023-05-15T17:19:16.437Z,8.47
2023-05-15T17:21:56.989Z,9.50
2023-05-15T17:24:25.345Z,9.77
2023-05-15T17:26:55.391Z,11.10
2023-05-15T17:29:23.626Z,9.33
2023-05-15T17:31:54.061Z,9.00
2023-05-15T17:34:22.816Z,9.23
2023-05-15T17:36:54.681Z,8.80
2023-05-15T17:40:04.051Z,9.37
2023-05-15T17:42:33.476Z,9.07
2023-05-15T17:45:01.810Z,9.97
2023-05-15T17:47:31.481Z,10.07
2023-05-15T17:49:59.604Z,10.87
2023-05-15T17:52:28.002Z,9.27
2023-05-15T17:55:04.072Z,9.33
2023-05-15T17:57:32.941Z,9.33
2023-05-15T18:00:13.788Z,10.40
2023-05-15T18:03:10.781Z,10.30
2023-05-15T18:05:38.974Z,10.50
2023-05-15T18:08:08.175Z,10.00
2023-05-15T18:10:40.136Z,9.27
2023-05-15T18:13:14.581Z,10.63
2023-05-15T18:15:55.237Z,9.03
2023-05-15T18:18:27.770Z,9.50
2023-05-15T18:21:08.707Z,9.97
2023-05-15T18:23:40.139Z,9.33
2023-05-15T18:26:11.235Z,9.07
2023-05-15T18:28:39.847Z,9.90
2023-05-15T18:31:13.955Z,10.33
2023-05-15T18:33:44.946Z,10.17
2023-05-15T18:36:17.386Z,12.87
2023-05-15T18:39:05.014Z,11.73
2023-05-15T18:41:34.776Z,11.40
2023-05-15T18:44:15.834Z,11.73
2023-05-15T18:46:47.694Z,11.90
2023-05-15T18:49:18.154Z,12.70
2023-05-15T18:51:50.033Z,12.33
2023-05-15T18:54:19.787Z,13.57
2023-05-15T18:56:48.246Z,14.43
2023-05-15T18:59:16.380Z,14.60
2023-05-15T19:01:45.148Z,15.20
2023-05-15T19:04:13.721Z,15.10
2023-05-15T19:06:52.880Z,14.63
2023-05-15T19:09:42.471Z,14.30
2023-05-15T19:12:21.387Z,14.47
2023-05-15T19:14:50.561Z,11.83
2023-05-15T19:17:24.801Z,13.23
2023-05-15T19:19:53.232Z,13.13
2023-05-15T19:22:23.185Z,14.33
2023-05-15T19:24:52.607Z,12.70
2023-05-15T19:27:21.065Z,12.73
2023-05-15T19:29:53.993Z,14.30
2023-05-15T19:32:28.074Z,14.30
2023-05-15T19:34:58.089Z,14.33
2023-05-15T19:37:30.031Z,15.00
2023-05-15T19:40:10.697Z,15.23
2023-05-15T19:42:41.474Z,15.00
2023-05-15T19:45:12.402Z,14.07
2023-05-15T19:47:42.683Z,15.67
2023-05-15T19:50:12.030Z,16.80
2023-05-15T19:52:43.463Z,17.97
2023-05-15T19:55:13.864Z,16.90
2023-05-15T19:57:42.712Z,17.57
2023-05-15T20:00:12.473Z,17.07
2023-05-15T20:02:41.524Z,16.27
2023-05-15T20:05:35.899Z,17.67
2023-05-15T20:08:24.942Z,16.37
2023-05-15T20:10:53.282Z,17.70
2023-05-15T20:13:21.418Z,17.87
2023-05-15T20:15:54.858Z,18.93
2023-05-15T20:18:34.892Z,18.37
2023-05-15T20:21:07.424Z,17.17
2023-05-15T20:23:37.016Z,17.53
2023-05-15T20:26:05.338Z,17.90
2023-05-15T20:28:33.677Z,17.30
2023-05-15T20:31:02.112Z,17.37
2023-05-15T20:33:30.443Z,17.87
2023-05-15T20:36:05.998Z,19.77
2023-05-15T20:38:34.172Z,19.13
2023-05-15T20:41:04.458Z,18.40
2023-05-15T20:43:33.093Z,17.73
2023-05-15T20:46:01.233Z,16.37
2023-05-15T20:48:29.433Z,17.57
2023-05-15T20:50:58.536Z,17.80
2023-05-15T20:53:28.573Z,17.97
2023-05-15T20:55:56.857Z,18.93
2023-05-15T20:58:26.241Z,18.10
2023-05-15T21:00:54.310Z,17.50
2023-05-15T21:03:22.693Z,18.50
2023-05-15T21:05:51.221Z,19.13
2023-05-15T21:08:19.369Z,19.23
2023-05-15T21:10:51.149Z,17.80
2023-05-15T21:13:21.809Z,17.73
2023-05-15T21:15:53.653Z,17.20
2023-05-15T21:18:21.739Z,17.80
2023-05-15T21:20:49.947Z,15.17
2023-05-15T21:23:18.342Z,16.67
2023-05-15T21:25:49.214Z,15.40
2023-05-15T21:28:17.515Z,15.67
2023-05-15T21:30:45.715Z,16.20
2023-05-15T21:33:18.155Z,16.10
2023-05-15T21:35:47.576Z,15.90
2023-05-15T21:38:15.952Z,15.80
2023-05-15T21:40:44.070Z,15.80
2023-05-15T21:43:12.261Z,16.47
2023-05-15T21:45:40.416Z,16.43
2023-05-15T21:48:08.705Z,16.37
2023-05-15T21:50:38.494Z,18.53
2023-05-15T21:53:06.771Z,19.00
2023-05-15T21:55:35.043Z,18.57
2023-05-15T21:58:03.377Z,17.63
2023-05-15T22:00:31.643Z,15.30
2023-05-15T22:03:00.077Z,15.30
2023-05-15T22:05:28.518Z,16.50
2023-05-15T22:07:58.740Z,16.33
2023-05-15T22:10:27.472Z,17.17
2023-05-15T22:12:56.006Z,17.40
2023-05-15T22:15:24.771Z,16.37
2023-05-15T22:17:56.098Z,17.70
2023-05-15T22:20:25.734Z,17.83
2023-05-15T22:22:53.972Z,16.73
2023-05-15T22:25:23.678Z,17.23
2023-05-15T22:27:52.001Z,17.57
2023-05-15T22:30:20.581Z,17.90
2023-05-15T22:32:48.834Z,16.90
2023-05-15T22:35:17.000Z,16.40
2023-05-15T22:37:45.551Z,15.80
2023-05-15T22:40:14.522Z,15.03
2023-05-15T22:42:44.137Z,15.23
2023-05-15T22:45:12.751Z,15.53
2023-05-15T22:47:40.924Z,14.43
2023-05-15T22:50:10.098Z,14.33
2023-05-15T22:52:39.073Z,15.37
2023-05-15T22:55:09.556Z,15.40
2023-05-15T22:57:37.702Z,15.93
2023-05-15T23:00:20.452Z,15.07
2023-05-15T23:02:48.738Z,16.13
2023-05-15T23:05:16.968Z,16.27
2023-05-15T23:07:45.086Z,16.73
2023-05-15T23:10:13.200Z,17.07
2023-05-15T23:12:57.636Z,16.37
2023-05-15T23:15:27.170Z,16.80
2023-05-15T23:17:58.496Z,15.70
2023-05-15T23:20:26.774Z,15.50
2023-05-15T23:22:57.033Z,16.07
2023-05-15T23:25:25.583Z,15.37
2023-05-15T23:27:53.649Z,16.47
2023-05-15T23:30:21.970Z,14.93
2023-05-15T23:32:51.607Z,15.63
2023-05-15T23:35:19.830Z,15.20
2023-05-15T23:37:47.932Z,15.53
2023-05-15T23:40:16.239Z,14.93
2023-05-15T23:42:44.454Z,14.43
2023-05-15T23:45:13.807Z,14.27
2023-05-15T23:47:42.220Z,14.67
2023-05-15T23:50:12.065Z,13.87
2023-05-15T23:52:40.214Z,14.93
2023-05-15T23:55:09.210Z,14.03
2023-05-15T23:57:37.301Z,15.83
